createdAt,value
2018-09-20T00:00:23.663Z,17.33
2018-09-20T00:01:22.895Z,17.35
2018-09-20T00:02:22.875Z,17.28
2018-09-20T00:03:22.857Z,17.17
2018-09-20T00:04:22.839Z,17.14
2018-09-20T00:05:22.819Z,17.17
2018-09-20T00:06:22.802Z,17.18
2018-09-20T00:07:22.784Z,17.07
2018-09-20T00:08:22.764Z,17.10
2018-09-20T00:09:22.745Z,17.10
2018-09-20T00:10:22.727Z,17.07
2018-09-20T00:11:22.709Z,17.13
2018-09-20T00:12:22.690Z,17.15
2018-09-20T00:13:22.670Z,17.03
2018-09-20T00:14:22.681Z,17.10
2018-09-20T00:15:22.633Z,17.03
2018-09-20T00:16:22.613Z,17.06
2018-09-20T00:17:22.596Z,17.10
2018-09-20T00:18:22.578Z,17.11
2018-09-20T00:19:22.558Z,16.98
2018-09-20T00:20:22.541Z,17.03
2018-09-20T00:21:22.521Z,17.06
2018-09-20T00:22:22.501Z,17.00
2018-09-20T00:23:22.483Z,17.00
2018-09-20T00:24:22.465Z,16.98
2018-09-20T00:25:22.446Z,16.98
2018-09-20T00:26:22.426Z,17.04
2018-09-20T00:27:22.408Z,16.98
2018-09-20T00:28:22.387Z,17.04
2018-09-20T00:29:22.368Z,17.04
2018-09-20T00:30:22.350Z,17.03
2018-09-20T00:31:22.331Z,16.96
2018-09-20T00:32:26.816Z,16.98
2018-09-20T00:33:22.294Z,16.93
2018-09-20T00:34:22.274Z,16.95
2018-09-20T00:35:22.255Z,17.03
2018-09-20T00:36:22.237Z,17.13
2018-09-20T00:37:22.218Z,16.98
2018-09-20T00:38:22.199Z,17.04
2018-09-20T00:39:22.181Z,17.07
2018-09-20T00:40:22.164Z,17.07
2018-09-20T00:41:22.141Z,16.98
2018-09-20T00:42:22.123Z,16.93
2018-09-20T00:43:22.203Z,16.92
2018-09-20T00:44:22.835Z,16.81
2018-09-20T00:45:22.064Z,16.81
2018-09-20T00:46:22.047Z,16.81
2018-09-20T00:47:22.028Z,16.81
2018-09-20T00:48:22.008Z,16.75
2018-09-20T00:49:21.988Z,16.73
2018-09-20T00:50:21.970Z,16.68
2018-09-20T00:51:21.951Z,16.71
2018-09-20T00:52:21.930Z,16.74
2018-09-20T00:53:21.913Z,16.70
2018-09-20T00:54:21.894Z,16.59
2018-09-20T00:55:21.875Z,16.59
2018-09-20T00:56:21.854Z,16.59
2018-09-20T00:57:21.835Z,16.59
2018-09-20T00:58:21.817Z,16.62
2018-09-20T00:59:21.797Z,16.59
2018-09-20T01:00:21.777Z,16.67
2018-09-20T01:01:21.759Z,16.67
2018-09-20T01:02:21.739Z,16.75
2018-09-20T01:03:21.721Z,16.75
2018-09-20T01:04:21.700Z,16.81
2018-09-20T01:05:21.681Z,16.80
2018-09-20T01:06:21.669Z,16.83
2018-09-20T01:07:21.643Z,16.81
2018-09-20T01:08:21.624Z,16.90
2018-09-20T01:09:21.604Z,16.80
2018-09-20T01:10:21.587Z,16.83
2018-09-20T01:11:23.068Z,16.83
2018-09-20T01:12:21.546Z,16.80
2018-09-20T01:13:21.529Z,16.80
2018-09-20T01:14:21.508Z,16.73
2018-09-20T01:15:21.490Z,16.77
2018-09-20T01:16:21.471Z,16.77
2018-09-20T01:17:21.453Z,16.80
2018-09-20T01:18:21.435Z,16.78
2018-09-20T01:19:21.413Z,16.81
2018-09-20T01:20:21.397Z,16.88
2018-09-20T01:21:21.376Z,16.81
2018-09-20T01:22:21.355Z,16.90
2018-09-20T01:23:21.336Z,16.77
2018-09-20T01:24:21.316Z,16.81
2018-09-20T01:25:21.297Z,16.73
2018-09-20T01:26:21.278Z,16.73
2018-09-20T01:27:21.258Z,16.71
2018-09-20T01:28:21.244Z,16.71
2018-09-20T01:29:21.219Z,16.67
2018-09-20T01:30:21.200Z,16.63
2018-09-20T01:31:21.181Z,16.63
2018-09-20T01:32:21.161Z,16.58
2018-09-20T01:33:21.142Z,16.67
2018-09-20T01:34:21.126Z,16.63
2018-09-20T01:35:21.158Z,16.56
2018-09-20T01:36:21.085Z,16.52
2018-09-20T01:37:21.071Z,16.55
2018-09-20T01:38:21.046Z,16.52
2018-09-20T01:39:21.029Z,16.44
2018-09-20T01:40:21.008Z,16.42
2018-09-20T01:41:20.988Z,16.42
2018-09-20T01:42:20.969Z,16.42
2018-09-20T01:43:20.951Z,16.48
2018-09-20T01:44:20.931Z,16.42
2018-09-20T01:45:20.917Z,16.45
2018-09-20T01:46:20.893Z,16.37
2018-09-20T01:47:20.875Z,16.30
2018-09-20T01:48:20.854Z,16.30
2018-09-20T01:49:20.835Z,16.35
2018-09-20T01:50:20.817Z,16.35
2018-09-20T01:51:20.801Z,16.35
2018-09-20T01:52:20.777Z,16.33
2018-09-20T01:53:20.759Z,16.35
2018-09-20T01:54:20.740Z,16.35
2018-09-20T01:55:21.471Z,16.33
2018-09-20T01:56:20.701Z,16.38
2018-09-20T01:57:20.682Z,16.42
2018-09-20T01:58:20.661Z,16.30
2018-09-20T01:59:20.644Z,16.31
2018-09-20T02:00:20.623Z,16.34
2018-09-20T02:01:20.604Z,16.35
2018-09-20T02:02:20.585Z,16.34
2018-09-20T02:03:20.565Z,16.31
2018-09-20T02:04:20.547Z,16.34
2018-09-20T02:05:20.528Z,16.27
2018-09-20T02:06:20.508Z,16.18
2018-09-20T02:07:20.499Z,16.26
2018-09-20T02:08:20.471Z,16.23
2018-09-20T02:09:20.451Z,16.16
2018-09-20T02:10:20.431Z,16.16
2018-09-20T02:11:20.413Z,16.12
2018-09-20T02:12:20.392Z,16.23
2018-09-20T02:13:20.421Z,16.23
2018-09-20T02:14:20.362Z,16.18
2018-09-20T02:15:20.335Z,16.22
2018-09-20T02:16:20.314Z,16.22
2018-09-20T02:17:20.296Z,16.18
2018-09-20T02:18:20.276Z,16.26
2018-09-20T02:19:20.258Z,16.18
2018-09-20T02:20:20.238Z,16.30
2018-09-20T02:21:20.218Z,16.27
2018-09-20T02:22:20.199Z,16.16
2018-09-20T02:23:20.180Z,16.18
2018-09-20T02:24:20.160Z,16.20
2018-09-20T02:25:20.143Z,16.18
2018-09-20T02:26:20.122Z,16.18
2018-09-20T02:27:20.102Z,16.20
2018-09-20T02:28:20.082Z,16.30
2018-09-20T02:29:20.063Z,16.16
2018-09-20T02:30:20.044Z,16.27
2018-09-20T02:31:20.040Z,16.20
2018-09-20T02:32:20.005Z,16.23
2018-09-20T02:33:19.986Z,16.25
2018-09-20T02:34:19.971Z,16.27
2018-09-20T02:35:19.949Z,16.22
2018-09-20T02:36:19.928Z,16.15
2018-09-20T02:37:19.909Z,16.16
2018-09-20T02:38:19.892Z,16.16
2018-09-20T02:39:19.872Z,16.20
2018-09-20T02:40:19.853Z,16.23
2018-09-20T02:41:19.831Z,16.20
2018-09-20T02:42:20.563Z,16.25
2018-09-20T02:43:19.793Z,16.26
2018-09-20T02:44:19.775Z,16.18
2018-09-20T02:45:19.755Z,16.27
2018-09-20T02:46:19.735Z,16.26
2018-09-20T02:47:19.718Z,16.25
2018-09-20T02:48:19.697Z,16.33
2018-09-20T02:49:19.679Z,16.37
2018-09-20T02:50:19.669Z,16.26
2018-09-20T02:51:19.638Z,16.25
2018-09-20T02:52:19.621Z,16.26
2018-09-20T02:53:19.599Z,16.34
2018-09-20T02:54:19.582Z,16.23
2018-09-20T02:55:19.563Z,16.35
2018-09-20T02:56:19.542Z,16.37
2018-09-20T02:57:19.522Z,16.31
2018-09-20T02:58:19.503Z,16.23
2018-09-20T02:59:19.486Z,16.26
2018-09-20T03:00:19.469Z,16.16
2018-09-20T03:01:19.447Z,16.25
2018-09-20T03:02:19.432Z,16.20
2018-09-20T03:03:19.409Z,16.16
2018-09-20T03:04:19.387Z,16.22
2018-09-20T03:05:19.370Z,16.16
2018-09-20T03:06:19.350Z,16.04
2018-09-20T03:07:19.330Z,16.09
2018-09-20T03:08:19.310Z,16.00
2018-09-20T03:09:20.041Z,16.09
2018-09-20T03:10:19.271Z,16.03
2018-09-20T03:11:19.252Z,16.04
2018-09-20T03:12:19.248Z,16.01
2018-09-20T03:13:19.213Z,16.06
2018-09-20T03:14:19.220Z,16.03
2018-09-20T03:15:19.175Z,16.01
2018-09-20T03:16:19.157Z,16.00
2018-09-20T03:17:19.136Z,15.97
2018-09-20T03:18:19.134Z,16.01
2018-09-20T03:19:19.098Z,16.06
2018-09-20T03:20:19.077Z,16.20
2018-09-20T03:21:19.060Z,16.20
2018-09-20T03:22:19.039Z,16.20
2018-09-20T03:23:19.021Z,16.23
2018-09-20T03:24:19.002Z,16.25
2018-09-20T03:25:18.981Z,16.16
2018-09-20T03:26:18.963Z,16.20
2018-09-20T03:27:18.942Z,16.16
2018-09-20T03:28:18.928Z,16.15
2018-09-20T03:29:18.904Z,16.27
2018-09-20T03:30:18.948Z,16.20
2018-09-20T03:31:18.867Z,16.20
2018-09-20T03:32:18.847Z,16.14
2018-09-20T03:33:18.826Z,16.03
2018-09-20T03:34:18.807Z,16.04
2018-09-20T03:35:18.795Z,16.06
2018-09-20T03:36:19.518Z,16.03
2018-09-20T03:37:18.755Z,16.04
2018-09-20T03:38:18.730Z,15.94
2018-09-20T03:39:18.711Z,15.97
2018-09-20T03:40:18.690Z,16.00
2018-09-20T03:41:18.672Z,16.00
2018-09-20T03:42:18.655Z,15.97
2018-09-20T03:43:18.632Z,16.00
2018-09-20T03:44:18.613Z,16.00
2018-09-20T03:45:18.594Z,15.92
2018-09-20T03:46:18.575Z,15.97
2018-09-20T03:47:18.558Z,15.89
2018-09-20T03:48:18.534Z,15.96
2018-09-20T03:49:18.517Z,15.88
2018-09-20T03:50:18.496Z,15.96
2018-09-20T03:51:18.476Z,15.82
2018-09-20T03:52:18.465Z,15.86
2018-09-20T03:53:18.436Z,15.89
2018-09-20T03:54:18.417Z,15.79
2018-09-20T03:55:18.399Z,15.81
2018-09-20T03:56:18.378Z,15.72
2018-09-20T03:57:18.362Z,15.70
2018-09-20T03:58:18.347Z,15.72
2018-09-20T03:59:18.322Z,15.78
2018-09-20T04:00:18.302Z,15.78
2018-09-20T04:01:18.282Z,15.75
2018-09-20T04:02:18.262Z,15.82
2018-09-20T04:03:18.242Z,15.72
2018-09-20T04:04:18.222Z,15.81
2018-09-20T04:05:18.202Z,15.79
2018-09-20T04:06:18.182Z,15.84
2018-09-20T04:07:18.163Z,15.76
2018-09-20T04:08:18.144Z,15.84
2018-09-20T04:09:18.123Z,15.84
2018-09-20T04:10:18.105Z,15.88
2018-09-20T04:11:18.085Z,15.79
2018-09-20T04:12:18.064Z,15.79
2018-09-20T04:13:18.044Z,15.72
2018-09-20T04:14:18.026Z,15.74
2018-09-20T04:15:18.006Z,15.74
2018-09-20T04:16:17.985Z,15.74
2018-09-20T04:17:17.968Z,15.72
2018-09-20T04:18:17.951Z,15.72
2018-09-20T04:19:17.929Z,15.74
2018-09-20T04:20:17.907Z,15.67
2018-09-20T04:21:17.887Z,15.70
2018-09-20T04:22:17.868Z,15.68
2018-09-20T04:23:17.849Z,15.66
2018-09-20T04:24:17.828Z,15.72
2018-09-20T04:25:17.809Z,15.63
2018-09-20T04:26:17.788Z,15.74
2018-09-20T04:27:17.770Z,15.64
2018-09-20T04:28:17.748Z,15.66
2018-09-20T04:29:17.738Z,15.63
2018-09-20T04:30:17.709Z,15.63
2018-09-20T04:31:17.690Z,15.56
2018-09-20T04:32:17.669Z,15.63
2018-09-20T04:33:17.650Z,15.56
2018-09-20T04:34:17.630Z,15.57
2018-09-20T04:35:17.611Z,15.51
2018-09-20T04:36:17.591Z,15.59
2018-09-20T04:37:17.571Z,15.51
2018-09-20T04:38:17.552Z,15.54
2018-09-20T04:39:17.534Z,15.56
2018-09-20T04:40:17.511Z,15.57
2018-09-20T04:41:17.491Z,15.60
2018-09-20T04:42:17.472Z,15.59
2018-09-20T04:43:17.452Z,15.63
2018-09-20T04:44:17.433Z,15.70
2018-09-20T04:45:17.412Z,15.70
2018-09-20T04:46:18.943Z,15.59
2018-09-20T04:47:17.374Z,15.67
2018-09-20T04:48:17.352Z,15.67
2018-09-20T04:49:17.333Z,15.70
2018-09-20T04:50:17.313Z,15.74
2018-09-20T04:51:17.298Z,15.74
2018-09-20T04:52:17.273Z,15.82
2018-09-20T04:53:17.332Z,15.75
2018-09-20T04:54:17.235Z,15.82
2018-09-20T04:55:17.215Z,15.78
2018-09-20T04:56:17.194Z,15.81
2018-09-20T04:57:17.176Z,15.84
2018-09-20T04:58:17.155Z,15.81
2018-09-20T04:59:17.137Z,15.79
2018-09-20T05:00:17.116Z,15.78
2018-09-20T05:01:17.095Z,15.84
2018-09-20T05:02:17.076Z,15.68
2018-09-20T05:03:17.056Z,15.68
2018-09-20T05:04:17.036Z,15.72
2018-09-20T05:05:17.020Z,15.74
2018-09-20T05:06:16.998Z,15.66
2018-09-20T05:07:16.977Z,15.78
2018-09-20T05:08:17.709Z,15.67
2018-09-20T05:09:16.938Z,15.70
2018-09-20T05:10:16.919Z,15.66
2018-09-20T05:11:16.900Z,15.59
2018-09-20T05:12:16.878Z,15.59
2018-09-20T05:13:16.860Z,15.68
2018-09-20T05:14:16.839Z,15.63
2018-09-20T05:15:16.821Z,15.56
2018-09-20T05:16:16.802Z,15.66
2018-09-20T05:17:16.780Z,15.66
2018-09-20T05:18:16.760Z,15.68
2018-09-20T05:19:16.740Z,15.67
2018-09-20T05:20:16.835Z,15.75
2018-09-20T05:21:16.700Z,15.81
2018-09-20T05:22:16.682Z,15.97
2018-09-20T05:23:16.663Z,15.93
2018-09-20T05:24:18.144Z,15.94
2018-09-20T05:25:16.623Z,15.94
2018-09-20T05:26:16.603Z,16.00
2018-09-20T05:27:16.583Z,15.93
2018-09-20T05:28:16.563Z,15.96
2018-09-20T05:29:16.543Z,15.94
2018-09-20T05:30:17.274Z,15.96
2018-09-20T05:31:16.504Z,15.94
2018-09-20T05:32:16.485Z,15.94
2018-09-20T05:33:16.519Z,15.89
2018-09-20T05:34:16.446Z,15.86
2018-09-20T05:35:16.429Z,15.93
2018-09-20T05:36:16.413Z,15.89
2018-09-20T05:37:16.385Z,15.84
2018-09-20T05:38:16.371Z,15.75
2018-09-20T05:39:16.351Z,15.93
2018-09-20T05:40:16.326Z,15.76
2018-09-20T05:41:16.306Z,15.76
2018-09-20T05:42:16.289Z,15.82
2018-09-20T05:43:16.274Z,15.93
2018-09-20T05:44:16.250Z,15.96
2018-09-20T05:45:16.230Z,15.89
2018-09-20T05:46:16.213Z,15.97
2018-09-20T05:47:16.189Z,15.97
2018-09-20T05:48:16.171Z,15.94
2018-09-20T05:49:16.150Z,16.06
2018-09-20T05:50:16.131Z,16.03
2018-09-20T05:51:16.112Z,16.12
2018-09-20T05:52:16.092Z,16.26
2018-09-20T05:53:16.071Z,16.16
2018-09-20T05:54:16.051Z,16.27
2018-09-20T05:55:16.032Z,16.33
2018-09-20T05:56:16.014Z,16.37
2018-09-20T05:57:15.992Z,16.33
2018-09-20T05:58:15.973Z,16.40
2018-09-20T05:59:15.978Z,16.40
2018-09-20T06:00:15.933Z,16.42
2018-09-20T06:01:18.216Z,16.44
2018-09-20T06:02:15.895Z,16.42
2018-09-20T06:03:15.875Z,16.42
2018-09-20T06:04:15.855Z,16.53
2018-09-20T06:05:15.840Z,16.44
2018-09-20T06:06:15.817Z,16.56
2018-09-20T06:07:15.801Z,16.62
2018-09-20T06:08:15.778Z,16.60
2018-09-20T06:09:15.759Z,16.70
2018-09-20T06:10:15.739Z,16.75
2018-09-20T06:11:15.720Z,16.77
2018-09-20T06:12:15.698Z,16.77
2018-09-20T06:13:15.725Z,16.89
2018-09-20T06:14:15.660Z,16.80
2018-09-20T06:15:15.642Z,16.93
2018-09-20T06:16:15.622Z,16.92
2018-09-20T06:17:15.604Z,16.96
2018-09-20T06:18:15.582Z,16.99
2018-09-20T06:19:15.564Z,16.92
2018-09-20T06:20:15.544Z,16.95
2018-09-20T06:21:15.524Z,16.93
2018-09-20T06:22:15.505Z,16.98
2018-09-20T06:23:15.487Z,17.00
2018-09-20T06:24:15.468Z,17.00
2018-09-20T06:25:15.449Z,16.99
2018-09-20T06:26:15.433Z,17.03
2018-09-20T06:27:15.413Z,17.06
2018-09-20T06:28:15.392Z,17.10
2018-09-20T06:29:15.371Z,17.08
2018-09-20T06:30:15.353Z,17.18
2018-09-20T06:31:15.333Z,17.07
2018-09-20T06:32:15.316Z,17.13
2018-09-20T06:33:15.295Z,17.17
2018-09-20T06:34:15.276Z,17.23
2018-09-20T06:35:15.258Z,17.18
2018-09-20T06:36:15.239Z,17.25
2018-09-20T06:37:15.221Z,17.22
2018-09-20T06:38:15.211Z,17.35
2018-09-20T06:39:15.182Z,17.35
2018-09-20T06:40:15.171Z,17.32
2018-09-20T06:41:15.144Z,17.38
2018-09-20T06:42:15.125Z,17.51
2018-09-20T06:43:15.109Z,17.48
2018-09-20T06:44:15.837Z,17.55
2018-09-20T06:45:15.069Z,17.55
2018-09-20T06:46:15.050Z,17.63
2018-09-20T06:47:15.032Z,17.64
2018-09-20T06:48:15.012Z,17.73
2018-09-20T06:49:14.994Z,17.74
2018-09-20T06:50:15.023Z,17.85
2018-09-20T06:51:14.958Z,17.89
2018-09-20T06:52:14.940Z,17.84
2018-09-20T06:53:14.920Z,17.88
2018-09-20T06:54:14.902Z,17.95
2018-09-20T06:55:14.883Z,17.94
2018-09-20T06:56:14.865Z,18.02
2018-09-20T06:57:14.847Z,18.06
2018-09-20T06:58:14.828Z,18.09
2018-09-20T06:59:14.811Z,18.19
2018-09-20T07:00:14.790Z,18.22
2018-09-20T07:01:14.772Z,18.22
2018-09-20T07:02:14.755Z,18.31
2018-09-20T07:03:14.800Z,18.36
2018-09-20T07:04:14.718Z,18.37
2018-09-20T07:05:15.449Z,18.43
2018-09-20T07:06:14.685Z,18.49
2018-09-20T07:07:14.662Z,18.43
2018-09-20T07:08:14.645Z,18.47
2018-09-20T07:09:14.626Z,18.54
2018-09-20T07:10:14.608Z,18.58
2018-09-20T07:11:14.591Z,18.57
2018-09-20T07:12:14.581Z,18.62
2018-09-20T07:13:14.554Z,18.65
2018-09-20T07:14:14.535Z,18.64
2018-09-20T07:15:14.518Z,18.68
2018-09-20T07:16:14.498Z,18.70
2018-09-20T07:17:14.479Z,18.73
2018-09-20T07:18:14.462Z,18.77
2018-09-20T07:19:14.457Z,18.74
2018-09-20T07:20:14.426Z,18.73
2018-09-20T07:21:14.408Z,18.79
2018-09-20T07:22:14.390Z,18.82
2018-09-20T07:23:14.372Z,18.84
2018-09-20T07:24:14.354Z,18.86
2018-09-20T07:25:14.395Z,18.92
2018-09-20T07:26:15.819Z,18.94
2018-09-20T07:27:14.299Z,18.95
2018-09-20T07:28:14.282Z,18.97
2018-09-20T07:29:14.264Z,19.11
2018-09-20T07:30:14.246Z,19.08
2018-09-20T07:31:14.232Z,19.05
2018-09-20T07:32:18.714Z,19.11
2018-09-20T07:33:14.192Z,19.13
2018-09-20T07:34:14.176Z,19.18
2018-09-20T07:35:14.158Z,19.10
2018-09-20T07:36:14.138Z,19.13
2018-09-20T07:37:14.120Z,19.14
2018-09-20T07:38:16.355Z,19.24
2018-09-20T07:39:14.086Z,19.18
2018-09-20T07:40:14.066Z,19.21
2018-09-20T07:41:14.050Z,19.32
2018-09-20T07:42:14.031Z,19.35
2018-09-20T07:43:14.013Z,19.32
2018-09-20T07:44:13.995Z,19.36
2018-09-20T07:45:13.978Z,19.36
2018-09-20T07:46:13.960Z,19.42
2018-09-20T07:47:13.942Z,19.43
2018-09-20T07:48:13.924Z,19.55
2018-09-20T07:49:13.907Z,19.53
2018-09-20T07:50:13.890Z,19.61
2018-09-20T07:51:13.871Z,19.66
2018-09-20T07:52:13.859Z,19.70
2018-09-20T07:53:13.835Z,19.72
2018-09-20T07:54:13.822Z,19.66
2018-09-20T07:55:13.800Z,19.72
2018-09-20T07:56:13.791Z,19.72
2018-09-20T07:57:13.766Z,19.73
2018-09-20T07:58:13.747Z,19.79
2018-09-20T07:59:13.730Z,19.87
2018-09-20T08:00:13.715Z,19.87
2018-09-20T08:01:13.694Z,19.86
2018-09-20T08:02:13.679Z,19.94
2018-09-20T08:03:13.662Z,19.93
2018-09-20T08:04:13.641Z,20.09
2018-09-20T08:05:13.624Z,20.05
2018-09-20T08:06:13.609Z,20.13
2018-09-20T08:07:13.607Z,20.16
2018-09-20T08:08:13.571Z,20.24
2018-09-20T08:09:13.554Z,20.24
2018-09-20T08:10:13.537Z,20.25
2018-09-20T08:11:13.520Z,20.33
2018-09-20T08:12:13.502Z,20.31
2018-09-20T08:13:13.485Z,20.33
2018-09-20T08:14:13.468Z,20.49
2018-09-20T08:15:13.451Z,20.51
2018-09-20T08:16:14.934Z,20.53
2018-09-20T08:17:13.415Z,20.58
2018-09-20T08:18:13.399Z,20.56
2018-09-20T08:19:13.384Z,20.62
2018-09-20T08:20:13.363Z,20.62
2018-09-20T08:21:13.347Z,20.64
2018-09-20T08:22:14.834Z,20.62
2018-09-20T08:23:13.313Z,20.59
2018-09-20T08:24:13.296Z,20.74
2018-09-20T08:25:13.278Z,20.68
2018-09-20T08:26:13.266Z,20.64
2018-09-20T08:27:13.244Z,20.68
2018-09-20T08:28:13.226Z,20.76
2018-09-20T08:29:13.210Z,20.80
2018-09-20T08:30:13.198Z,20.69
2018-09-20T08:31:13.177Z,20.81
2018-09-20T08:32:13.158Z,20.87
2018-09-20T08:33:13.143Z,20.91
2018-09-20T08:34:13.125Z,20.99
2018-09-20T08:35:13.108Z,21.05
2018-09-20T08:36:13.092Z,21.11
2018-09-20T08:37:13.133Z,20.98
2018-09-20T08:38:13.056Z,20.87
2018-09-20T08:39:13.039Z,21.02
2018-09-20T08:40:13.022Z,20.99
2018-09-20T08:41:13.005Z,21.13
2018-09-20T08:42:12.993Z,21.16
2018-09-20T08:43:12.972Z,21.13
2018-09-20T08:44:12.956Z,21.32
2018-09-20T08:45:12.940Z,21.30
2018-09-20T08:46:12.922Z,21.32
2018-09-20T08:47:12.905Z,21.27
2018-09-20T08:48:12.886Z,21.32
2018-09-20T08:49:12.870Z,21.24
2018-09-20T08:50:12.853Z,21.34
2018-09-20T08:51:12.837Z,21.36
2018-09-20T08:52:12.818Z,21.38
2018-09-20T08:53:12.803Z,21.26
2018-09-20T08:54:12.787Z,21.42
2018-09-20T08:55:12.776Z,21.42
2018-09-20T08:56:12.753Z,21.51
2018-09-20T08:57:12.763Z,21.60
2018-09-20T08:58:12.720Z,21.74
2018-09-20T08:59:12.703Z,21.74
2018-09-20T09:00:13.443Z,21.71
2018-09-20T09:01:12.669Z,21.78
2018-09-20T09:02:12.652Z,21.72
2018-09-20T09:03:12.636Z,21.61
2018-09-20T09:04:12.620Z,21.71
2018-09-20T09:05:12.603Z,21.74
2018-09-20T09:06:12.587Z,21.75
2018-09-20T09:07:12.571Z,21.74
2018-09-20T09:08:12.555Z,21.83
2018-09-20T09:09:12.536Z,21.83
2018-09-20T09:10:12.519Z,21.95
2018-09-20T09:11:12.504Z,21.99
2018-09-20T09:12:12.488Z,21.99
2018-09-20T09:13:12.469Z,22.04
2018-09-20T09:14:12.454Z,22.13
2018-09-20T09:15:12.437Z,22.13
2018-09-20T09:16:12.421Z,22.02
2018-09-20T09:17:12.405Z,22.04
2018-09-20T09:18:12.387Z,22.09
2018-09-20T09:19:12.372Z,22.25
2018-09-20T09:20:12.355Z,22.28
2018-09-20T09:21:12.338Z,22.31
2018-09-20T09:22:12.323Z,22.23
2018-09-20T09:23:12.306Z,22.32
2018-09-20T09:24:12.288Z,22.22
2018-09-20T09:25:12.272Z,22.27
2018-09-20T09:26:12.260Z,22.27
2018-09-20T09:27:12.240Z,22.37
2018-09-20T09:28:12.222Z,22.39
2018-09-20T09:29:12.206Z,22.44
2018-09-20T09:30:12.190Z,22.41
2018-09-20T09:31:12.175Z,22.44
2018-09-20T09:32:12.160Z,22.47
2018-09-20T09:33:12.141Z,22.53
2018-09-20T09:34:12.131Z,22.56
2018-09-20T09:35:12.109Z,22.56
2018-09-20T09:36:12.091Z,22.59
2018-09-20T09:37:12.074Z,22.56
2018-09-20T09:38:12.059Z,22.57
2018-09-20T09:39:12.043Z,22.62
2018-09-20T09:40:12.027Z,22.77
2018-09-20T09:41:12.011Z,22.80
2018-09-20T09:42:12.022Z,22.87
2018-09-20T09:43:11.978Z,22.92
2018-09-20T09:44:11.963Z,22.93
2018-09-20T09:45:11.947Z,23.02
2018-09-20T09:46:11.929Z,23.02
2018-09-20T09:47:11.915Z,23.05
2018-09-20T09:48:11.951Z,23.07
2018-09-20T09:49:11.881Z,23.01
2018-09-20T09:50:11.865Z,23.01
2018-09-20T09:51:11.850Z,23.08
2018-09-20T09:52:11.832Z,23.19
2018-09-20T09:53:11.818Z,23.15
2018-09-20T09:54:11.818Z,23.22
2018-09-20T09:55:11.789Z,23.29
2018-09-20T09:56:11.769Z,23.34
2018-09-20T09:57:11.752Z,23.34
2018-09-20T09:58:11.736Z,23.46
2018-09-20T09:59:11.721Z,23.43
2018-09-20T10:00:11.704Z,23.49
2018-09-20T10:01:11.689Z,23.50
2018-09-20T10:02:11.676Z,23.57
2018-09-20T10:03:11.657Z,23.60
2018-09-20T10:04:12.391Z,23.43
2018-09-20T10:05:11.626Z,23.45
2018-09-20T10:06:11.611Z,23.35
2018-09-20T10:07:11.637Z,23.27
2018-09-20T10:08:11.579Z,23.40
2018-09-20T10:09:11.563Z,23.31
2018-09-20T10:10:11.549Z,23.26
2018-09-20T10:11:11.532Z,23.11
2018-09-20T10:12:11.519Z,23.26
2018-09-20T10:13:11.509Z,23.22
2018-09-20T10:14:11.489Z,23.23
2018-09-20T10:15:11.471Z,23.29
2018-09-20T10:16:11.453Z,23.39
2018-09-20T10:17:11.439Z,23.42
2018-09-20T10:18:11.423Z,23.34
2018-09-20T10:19:11.406Z,23.42
2018-09-20T10:20:11.391Z,23.45
2018-09-20T10:21:11.378Z,23.64
2018-09-20T10:22:11.360Z,23.62
2018-09-20T10:23:11.344Z,23.71
2018-09-20T10:24:11.328Z,23.57
2018-09-20T10:25:11.312Z,23.61
2018-09-20T10:26:12.048Z,23.52
2018-09-20T10:27:11.282Z,23.55
2018-09-20T10:28:11.293Z,23.52
2018-09-20T10:29:11.251Z,23.58
2018-09-20T10:30:11.235Z,23.61
2018-09-20T10:31:11.224Z,23.79
2018-09-20T10:32:11.203Z,23.77
2018-09-20T10:33:11.189Z,23.77
2018-09-20T10:34:11.286Z,23.89
2018-09-20T10:35:11.159Z,23.98
2018-09-20T10:36:11.141Z,23.95
2018-09-20T10:37:11.126Z,24.12
2018-09-20T10:38:11.111Z,24.00
2018-09-20T10:39:11.096Z,24.05
2018-09-20T10:40:11.079Z,24.20
2018-09-20T10:41:11.063Z,24.16
2018-09-20T10:42:11.048Z,24.23
2018-09-20T10:43:11.034Z,24.27
2018-09-20T10:44:11.019Z,24.19
2018-09-20T10:45:11.002Z,24.37
2018-09-20T10:46:10.988Z,24.38
2018-09-20T10:47:10.980Z,24.53
2018-09-20T10:48:10.957Z,24.67
2018-09-20T10:49:10.941Z,24.50
2018-09-20T10:50:10.927Z,24.56
2018-09-20T10:51:10.915Z,24.52
2018-09-20T10:52:10.895Z,24.52
2018-09-20T10:53:10.880Z,24.75
2018-09-20T10:54:10.867Z,24.52
2018-09-20T10:55:10.852Z,24.69
2018-09-20T10:56:10.836Z,24.76
2018-09-20T10:57:10.820Z,24.87
2018-09-20T10:58:10.806Z,24.87
2018-09-20T10:59:10.803Z,24.82
2018-09-20T11:00:10.774Z,24.80
2018-09-20T11:01:10.760Z,24.79
2018-09-20T11:02:11.497Z,24.76
2018-09-20T11:03:11.015Z,24.64
2018-09-20T11:04:10.714Z,24.57
2018-09-20T11:05:10.703Z,24.49
2018-09-20T11:06:10.685Z,24.53
2018-09-20T11:07:10.673Z,24.64
2018-09-20T11:08:10.654Z,24.76
2018-09-20T11:09:10.643Z,24.77
2018-09-20T11:10:10.630Z,24.76
2018-09-20T11:11:10.611Z,24.91
2018-09-20T11:12:10.595Z,25.05
2018-09-20T11:13:10.580Z,25.02
2018-09-20T11:14:10.565Z,25.09
2018-09-20T11:15:10.553Z,25.06
2018-09-20T11:16:10.535Z,24.94
2018-09-20T11:17:10.522Z,24.95
2018-09-20T11:18:11.259Z,25.05
2018-09-20T11:19:10.492Z,25.01
2018-09-20T11:20:10.477Z,25.05
2018-09-20T11:21:10.461Z,25.16
2018-09-20T11:22:10.447Z,25.27
2018-09-20T11:23:10.433Z,25.19
2018-09-20T11:24:10.417Z,25.09
2018-09-20T11:25:10.403Z,25.13
2018-09-20T11:26:10.388Z,25.13
2018-09-20T11:27:10.374Z,25.22
2018-09-20T11:28:10.361Z,25.32
2018-09-20T11:29:11.847Z,25.32
2018-09-20T11:30:10.331Z,25.38
2018-09-20T11:31:10.315Z,25.37
2018-09-20T11:32:10.300Z,25.24
2018-09-20T11:33:10.287Z,25.22
2018-09-20T11:34:10.273Z,25.20
2018-09-20T11:35:11.759Z,25.15
2018-09-20T11:36:10.284Z,25.20
2018-09-20T11:37:10.229Z,25.27
2018-09-20T11:38:10.215Z,25.43
2018-09-20T11:39:10.200Z,25.37
2018-09-20T11:40:10.184Z,25.35
2018-09-20T11:41:13.176Z,25.34
2018-09-20T11:42:10.157Z,25.54
2018-09-20T11:43:10.143Z,25.46
2018-09-20T11:44:10.127Z,25.52
2018-09-20T11:45:10.114Z,25.38
2018-09-20T11:46:10.100Z,25.38
2018-09-20T11:47:10.085Z,25.57
2018-09-20T11:48:10.069Z,25.53
2018-09-20T11:49:10.054Z,25.59
2018-09-20T11:50:10.040Z,25.68
2018-09-20T11:51:10.026Z,25.87
2018-09-20T11:52:10.010Z,25.80
2018-09-20T11:53:09.997Z,25.79
2018-09-20T11:54:09.984Z,25.64
2018-09-20T11:55:09.969Z,25.77
2018-09-20T11:56:09.956Z,25.82
2018-09-20T11:57:09.939Z,25.82
2018-09-20T11:58:09.925Z,25.79
2018-09-20T11:59:09.912Z,25.82
2018-09-20T12:00:09.897Z,25.90
2018-09-20T12:01:09.904Z,25.97
2018-09-20T12:02:09.868Z,25.87
2018-09-20T12:03:12.858Z,25.93
2018-09-20T12:04:09.840Z,25.97
2018-09-20T12:05:09.826Z,25.80
2018-09-20T12:06:09.813Z,25.83
2018-09-20T12:07:09.799Z,25.90
2018-09-20T12:08:09.784Z,25.89
2018-09-20T12:09:12.772Z,25.93
2018-09-20T12:10:09.756Z,25.93
2018-09-20T12:11:09.742Z,25.94
2018-09-20T12:12:09.728Z,25.97
2018-09-20T12:13:09.712Z,25.98
2018-09-20T12:14:09.699Z,25.84
2018-09-20T12:15:13.439Z,25.83
2018-09-20T12:16:09.670Z,25.86
2018-09-20T12:17:09.660Z,25.82
2018-09-20T12:18:09.642Z,25.93
2018-09-20T12:19:09.629Z,26.20
2018-09-20T12:20:09.615Z,26.22
2018-09-20T12:21:11.103Z,26.31
2018-09-20T12:22:09.587Z,26.25
2018-09-20T12:23:09.572Z,26.27
2018-09-20T12:24:09.559Z,26.29
2018-09-20T12:25:09.545Z,26.27
2018-09-20T12:26:09.535Z,26.32
2018-09-20T12:27:09.517Z,26.44
2018-09-20T12:28:09.501Z,26.46
2018-09-20T12:29:09.491Z,26.31
2018-09-20T12:30:09.475Z,26.40
2018-09-20T12:31:09.464Z,26.43
2018-09-20T12:32:09.470Z,26.46
2018-09-20T12:33:09.433Z,26.35
2018-09-20T12:34:09.424Z,26.31
2018-09-20T12:35:09.406Z,26.29
2018-09-20T12:36:09.393Z,26.31
2018-09-20T12:37:09.378Z,26.42
2018-09-20T12:38:09.377Z,26.54
2018-09-20T12:39:09.354Z,26.55
2018-09-20T12:40:09.335Z,26.58
2018-09-20T12:41:09.324Z,26.68
2018-09-20T12:42:09.308Z,26.44
2018-09-20T12:43:09.398Z,26.37
2018-09-20T12:44:09.280Z,26.29
2018-09-20T12:45:09.267Z,26.29
2018-09-20T12:46:09.256Z,26.20
2018-09-20T12:47:09.239Z,26.06
2018-09-20T12:48:09.227Z,26.22
2018-09-20T12:49:09.211Z,26.29
2018-09-20T12:50:09.198Z,26.28
2018-09-20T12:51:09.185Z,26.35
2018-09-20T12:52:09.169Z,26.50